Time;durP1;ratioP1;P1;durP2;ratioP2;P2;SDS_P1;SDS_P2;PMS_P1;PMS_P2;Temp;Humidity;BMP_temperature;BMP_pressure;BME280_temperature;BME280_humidity;BME280_pressure;Samples;Min_cycle;Max_cycle;Signal;HPM_P1;HPM_P2
2021/05/06 00:33:02;;;;;;;33.05;5.75;;;;;;;;;;5042507;28;20035;-68
2021/05/06 00:35:32;;;;;;;28.60;5.15;;;;;;;;;;5043574;28;20068;-67
2021/05/06 00:38:10;;;;;;;30.30;6.15;;;;;;;;;;5048206;28;20505;-67
2021/05/06 00:46:42;;;;;;;21.75;5.20;;;;;;;;;;5035300;28;20107;-67
2021/05/06 00:57:37;;;;;;;32.08;5.70;;;;;;;;;;5042764;28;20116;-67
2021/05/06 01:05:13;;;;;;;30.27;5.55;;;;;;;;;;5055383;28;20041;-67
2021/05/06 01:07:59;;;;;;;25.10;5.00;;;;;;;;;;5052574;28;20091;-67
2021/05/06 01:13:19;;;;;;;27.27;4.45;;;;;;;;;;5054714;28;20086;-67
2021/05/06 01:15:46;;;;;;;30.98;5.43;;;;;;;;;;5052526;28;20119;-67
2021/05/06 01:18:13;;;;;;;28.27;5.47;;;;;;;;;;5040512;28;20408;-67
2021/05/06 01:20:44;;;;;;;32.05;5.63;;;;;;;;;;5045214;28;20017;-67
2021/05/06 01:23:12;;;;;;;27.65;4.85;;;;;;;;;;5047349;28;20051;-68
2021/05/06 01:25:42;;;;;;;29.52;6.20;;;;;;;;;;5045468;28;20433;-67
2021/05/06 01:28:13;;;;;;;36.47;5.88;;;;;;;;;;5045294;28;20021;-67
2021/05/06 01:30:47;;;;;;;30.85;5.18;;;;;;;;;;5050309;28;20036;-67
2021/05/06 01:35:56;;;;;;;34.83;5.47;;;;;;;;;;5047219;28;20033;-68
2021/05/06 01:44:03;;;;;;;34.30;6.55;;;;;;;;;;5040727;28;20052;-68
2021/05/06 01:49:30;;;;;;;36.07;5.43;;;;;;;;;;5046982;28;20029;-67
2021/05/06 02:00:01;;;;;;;30.80;4.68;;;;;;;;;;5049480;28;20101;-68
2021/05/06 02:02:28;;;;;;;39.67;6.30;;;;;;;;;;5034565;28;20018;-68
2021/05/06 02:04:55;;;;;;;41.65;6.50;;;;;;;;;;5050693;28;20477;-68
2021/05/06 02:07:22;;;;;;;39.42;6.15;;;;;;;;;;5051548;28;20041;-68
2021/05/06 02:09:50;;;;;;;35.90;5.55;;;;;;;;;;5050481;28;20036;-67
2021/05/06 02:12:18;;;;;;;41.20;7.97;;;;;;;;;;5038595;28;20761;-68
2021/05/06 02:14:54;;;;;;;44.63;8.15;;;;;;;;;;5045875;28;20029;-68
2021/05/06 02:17:21;;;;;;;40.03;6.30;;;;;;;;;;5052915;28;20078;-68
2021/05/06 02:19:49;;;;;;;42.10;7.20;;;;;;;;;;5050489;28;20020;-68
2021/05/06 02:22:18;;;;;;;46.30;7.57;;;;;;;;;;5045021;28;20168;-68
2021/05/06 02:24:46;;;;;;;38.03;7.38;;;;;;;;;;5041639;28;20413;-67
2021/05/06 02:27:13;;;;;;;38.22;7.85;;;;;;;;;;5056642;28;20401;-68
2021/05/06 02:29:40;;;;;;;38.70;7.65;;;;;;;;;;5047599;28;20029;-67
2021/05/06 02:32:08;;;;;;;41.53;7.97;;;;;;;;;;5032569;28;20100;-68
2021/05/06 02:34:35;;;;;;;42.70;6.82;;;;;;;;;;5048236;28;20044;-68
2021/05/06 02:37:02;;;;;;;39.85;7.93;;;;;;;;;;5052703;28;20416;-68
2021/05/06 02:39:29;;;;;;;33.85;6.15;;;;;;;;;;5051791;28;20493;-68
2021/05/06 02:41:56;;;;;;;37.95;5.90;;;;;;;;;;5051007;28;20040;-68
2021/05/06 02:44:23;;;;;;;37.03;5.85;;;;;;;;;;5039412;28;20037;-68
2021/05/06 02:46:51;;;;;;;33.97;5.50;;;;;;;;;;5035428;28;20503;-68
2021/05/06 02:49:20;;;;;;;38.17;6.60;;;;;;;;;;5053387;28;20029;-68
2021/05/06 02:51:54;;;;;;;29.17;6.43;;;;;;;;;;5052502;28;20025;-68
2021/05/06 02:54:22;;;;;;;36.10;6.82;;;;;;;;;;5053150;28;20634;-68
2021/05/06 03:04:47;;;;;;;18.63;2.70;;;;;;;;;;5054630;28;20048;-68
2021/05/06 03:07:19;;;;;;;26.15;3.63;;;;;;;;;;5053363;28;20028;-68
2021/05/06 03:12:38;;;;;;;22.65;4.55;;;;;;;;;;5053790;28;20105;-68
2021/05/06 03:21:02;;;;;;;25.52;3.47;;;;;;;;;;5051946;28;20033;-68
2021/05/06 03:23:28;;;;;;;13.18;2.13;;;;;;;;;;5050410;28;20059;-68
2021/05/06 03:25:59;;;;;;;13.70;2.33;;;;;;;;;;5052458;28;20029;-68
2021/05/06 03:28:33;;;;;;;14.25;1.65;;;;;;;;;;5053905;28;20029;-68
2021/05/06 03:41:53;;;;;;;20.55;3.50;;;;;;;;;;5053512;28;20083;-67
2021/05/06 04:17:03;;;;;;;27.33;4.40;;;;;;;;;;5050953;28;20374;-67
2021/05/06 04:30:52;;;;;;;38.45;5.88;;;;;;;;;;5039059;28;20029;-68
2021/05/06 04:36:07;;;;;;;25.30;4.28;;;;;;;;;;5050112;28;20580;-67
2021/05/06 04:38:35;;;;;;;29.13;4.57;;;;;;;;;;5044393;28;20029;-67
2021/05/06 04:57:11;;;;;;;40.95;5.88;;;;;;;;;;5052736;28;20082;-67
2021/05/06 05:05:00;;;;;;;35.83;5.72;;;;;;;;;;5042333;28;20096;-67
2021/05/06 05:07:49;;;;;;;38.15;5.95;;;;;;;;;;5043068;28;20359;-67
2021/05/06 05:10:27;;;;;;;32.05;5.28;;;;;;;;;;5039873;28;20098;-68
2021/05/06 05:23:55;;;;;;;37.88;5.20;;;;;;;;;;5041047;28;20038;-67
2021/05/06 05:26:22;;;;;;;39.95;7.10;;;;;;;;;;5034102;28;20034;-68
2021/05/06 05:28:50;;;;;;;40.30;6.35;;;;;;;;;;5043133;28;20483;-67
2021/05/06 05:31:17;;;;;;;41.67;8.00;;;;;;;;;;5031745;28;20029;-67
2021/05/06 05:33:56;;;;;;;35.83;6.50;;;;;;;;;;5040162;28;20048;-68
2021/05/06 05:36:24;;;;;;;37.05;6.28;;;;;;;;;;5048969;28;20114;-68
2021/05/06 05:54:32;;;;;;;32.05;5.93;;;;;;;;;;5053934;28;20120;-68
2021/05/06 05:54:47;;;;;;;35.65;5.50;;;;;;;;;;5051016;28;20060;-67
2021/05/06 05:57:14;;;;;;;33.35;6.05;;;;;;;;;;5039339;28;20033;-68
2021/05/06 05:59:41;;;;;;;37.53;6.57;;;;;;;;;;5035152;28;20033;-68
2021/05/06 06:02:09;;;;;;;35.47;6.68;;;;;;;;;;5034181;28;20053;-68
2021/05/06 06:04:36;;;;;;;40.75;7.07;;;;;;;;;;5044731;28;20028;-68
2021/05/06 06:07:03;;;;;;;38.70;5.93;;;;;;;;;;5035737;28;20093;-67
2021/05/06 06:09:30;;;;;;;30.80;5.75;;;;;;;;;;5049329;28;20013;-68
2021/05/06 06:11:58;;;;;;;37.22;6.80;;;;;;;;;;5054924;28;20024;-67
2021/05/06 06:14:52;;;;;;;35.35;7.70;;;;;;;;;;5053611;28;20037;-67
2021/05/06 06:17:15;;;;;;;38.38;6.72;;;;;;;;;;5034681;28;20037;-68
2021/05/06 06:19:48;;;;;;;44.42;9.15;;;;;;;;;;5051570;28;20086;-68
2021/05/06 06:22:19;;;;;;;34.60;5.85;;;;;;;;;;5051261;28;20021;-68
2021/05/06 06:24:46;;;;;;;32.80;6.15;;;;;;;;;;5054745;28;20024;-68
2021/05/06 06:27:14;;;;;;;35.25;7.38;;;;;;;;;;5052553;28;20017;-67
2021/05/06 06:29:42;;;;;;;31.30;4.80;;;;;;;;;;5053983;28;20028;-68
2021/05/06 06:32:13;;;;;;;36.03;4.93;;;;;;;;;;5053507;28;20029;-67
2021/05/06 06:34:40;;;;;;;27.30;5.53;;;;;;;;;;5055116;28;20053;-67
2021/05/06 06:37:07;;;;;;;30.63;5.78;;;;;;;;;;5054842;28;20485;-67
2021/05/06 06:39:38;;;;;;;30.13;4.40;;;;;;;;;;5050422;28;20115;-68
2021/05/06 06:42:07;;;;;;;29.35;4.53;;;;;;;;;;5041195;28;20424;-68
2021/05/06 06:44:35;;;;;;;28.70;5.43;;;;;;;;;;5049750;28;20029;-68
2021/05/06 06:47:04;;;;;;;30.02;4.85;;;;;;;;;;5052946;28;20016;-68
2021/05/06 06:49:34;;;;;;;20.83;4.70;;;;;;;;;;5044749;28;20542;-67
2021/05/06 06:52:02;;;;;;;30.67;5.78;;;;;;;;;;5058338;28;20124;-68
2021/05/06 06:54:29;;;;;;;21.42;4.03;;;;;;;;;;5040157;28;20067;-68
2021/05/06 06:56:56;;;;;;;24.10;4.63;;;;;;;;;;5034935;28;20033;-68
2021/05/06 06:59:24;;;;;;;24.67;4.50;;;;;;;;;;5048740;28;20464;-68
2021/05/06 07:01:51;;;;;;;25.70;4.20;;;;;;;;;;5039837;28;20022;-68
2021/05/06 07:04:19;;;;;;;26.10;4.78;;;;;;;;;;5040261;28;20521;-68
2021/05/06 07:06:46;;;;;;;24.30;3.65;;;;;;;;;;5057018;28;20032;-68
2021/05/06 07:09:13;;;;;;;21.67;4.20;;;;;;;;;;5045901;28;20413;-66
2021/05/06 07:11:40;;;;;;;18.58;3.28;;;;;;;;;;5040336;28;20072;-65
2021/05/06 07:14:07;;;;;;;19.75;4.00;;;;;;;;;;5052309;28;20025;-66
2021/05/06 07:16:34;;;;;;;30.15;4.78;;;;;;;;;;5046949;28;20037;-66
2021/05/06 07:19:01;;;;;;;23.08;4.03;;;;;;;;;;5054190;28;20068;-66
2021/05/06 07:21:29;;;;;;;20.85;3.58;;;;;;;;;;5044003;28;20017;-66
2021/05/06 07:23:56;;;;;;;27.10;5.22;;;;;;;;;;5053660;28;20033;-66
2021/05/06 07:26:25;;;;;;;23.52;5.22;;;;;;;;;;5037763;28;20112;-66
2021/05/06 07:28:53;;;;;;;18.48;3.85;;;;;;;;;;5043390;28;20037;-67
2021/05/06 07:31:21;;;;;;;25.45;4.07;;;;;;;;;;5053870;28;20025;-67
2021/05/06 07:33:49;;;;;;;31.75;5.57;;;;;;;;;;5042002;28;20096;-66
2021/05/06 07:36:17;;;;;;;30.65;5.95;;;;;;;;;;5061478;28;20465;-66
2021/05/06 07:38:45;;;;;;;27.30;5.45;;;;;;;;;;5038472;28;20021;-67
2021/05/06 07:41:13;;;;;;;26.55;5.30;;;;;;;;;;5038744;28;20025;-67
2021/05/06 07:43:43;;;;;;;22.17;4.30;;;;;;;;;;5047680;28;20516;-66
2021/05/06 07:46:11;;;;;;;26.98;4.78;;;;;;;;;;5041801;28;20052;-66
2021/05/06 07:48:38;;;;;;;19.70;4.50;;;;;;;;;;5037271;28;20024;-67
2021/05/06 07:51:05;;;;;;;24.08;4.65;;;;;;;;;;5044889;28;20089;-66
2021/05/06 07:54:33;;;;;;;28.33;4.75;;;;;;;;;;5042984;28;20037;-66
2021/05/06 07:56:29;;;;;;;28.02;6.38;;;;;;;;;;5034676;28;20100;-66
2021/05/06 07:58:56;;;;;;;24.27;4.75;;;;;;;;;;5053389;28;20083;-66
2021/05/06 08:01:23;;;;;;;29.02;5.15;;;;;;;;;;5050928;28;20428;-66
2021/05/06 08:03:52;;;;;;;35.47;5.50;;;;;;;;;;5041149;28;20029;-67
2021/05/06 08:06:20;;;;;;;35.55;5.88;;;;;;;;;;5064532;28;20409;-67
2021/05/06 08:08:47;;;;;;;35.53;6.65;;;;;;;;;;5050196;28;20423;-67
2021/05/06 08:11:14;;;;;;;36.50;6.43;;;;;;;;;;5044855;28;20494;-68
2021/05/06 08:13:42;;;;;;;31.75;6.25;;;;;;;;;;5034676;28;20056;-68
2021/05/06 08:16:09;;;;;;;33.63;6.25;;;;;;;;;;5044650;28;20080;-67
2021/05/06 08:18:36;;;;;;;32.28;5.90;;;;;;;;;;5041361;28;20038;-67
2021/05/06 08:21:04;;;;;;;40.33;6.90;;;;;;;;;;5032974;28;20025;-67
2021/05/06 08:23:32;;;;;;;35.47;7.10;;;;;;;;;;5043021;28;20156;-67
2021/05/06 08:25:59;;;;;;;28.52;6.00;;;;;;;;;;5034513;28;20017;-68
2021/05/06 08:28:26;;;;;;;39.13;6.03;;;;;;;;;;5042661;28;20033;-66
2021/05/06 08:30:53;;;;;;;31.65;5.78;;;;;;;;;;5033294;28;20385;-68
2021/05/06 08:33:20;;;;;;;38.08;6.00;;;;;;;;;;5059455;28;20057;-68
2021/05/06 08:35:48;;;;;;;30.05;5.95;;;;;;;;;;5049944;28;20424;-68
2021/05/06 08:38:15;;;;;;;38.40;5.93;;;;;;;;;;5032976;28;20033;-67
2021/05/06 08:40:42;;;;;;;40.72;6.47;;;;;;;;;;5033389;28;20152;-67
2021/05/06 08:43:11;;;;;;;40.53;6.68;;;;;;;;;;5064992;28;20492;-67
2021/05/06 08:45:46;;;;;;;39.53;6.57;;;;;;;;;;5048255;28;20029;-67
2021/05/06 08:48:16;;;;;;;42.35;6.85;;;;;;;;;;5045710;28;20055;-67
2021/05/06 08:50:45;;;;;;;43.03;8.23;;;;;;;;;;5046319;28;20414;-68
2021/05/06 08:53:12;;;;;;;35.80;6.72;;;;;;;;;;5042333;28;20424;-68
2021/05/06 08:55:41;;;;;;;39.95;10.32;;;;;;;;;;5050565;28;20043;-68
2021/05/06 08:58:08;;;;;;;37.13;6.05;;;;;;;;;;5040852;28;20111;-68
2021/05/06 09:00:35;;;;;;;35.50;6.88;;;;;;;;;;5033398;28;20112;-68
2021/05/06 09:03:03;;;;;;;37.80;6.65;;;;;;;;;;5061170;28;20048;-67
2021/05/06 09:05:31;;;;;;;36.20;7.50;;;;;;;;;;5037499;28;20033;-67
2021/05/06 09:07:58;;;;;;;41.58;7.07;;;;;;;;;;5047292;28;20117;-67
2021/05/06 09:10:38;;;;;;;46.28;8.63;;;;;;;;;;5050198;28;20033;-67
2021/05/06 09:13:25;;;;;;;41.50;8.32;;;;;;;;;;5050647;28;20037;-67
2021/05/06 09:15:52;;;;;;;39.90;6.38;;;;;;;;;;5055585;28;20049;-67
2021/05/06 09:18:48;;;;;;;36.67;7.20;;;;;;;;;;5052437;28;20035;-68
2021/05/06 09:21:32;;;;;;;40.63;6.95;;;;;;;;;;5043985;28;20436;-67
2021/05/06 09:24:10;;;;;;;31.58;6.50;;;;;;;;;;5048885;28;20017;-67
2021/05/06 09:26:38;;;;;;;40.60;6.60;;;;;;;;;;5037780;28;20105;-68
2021/05/06 09:29:07;;;;;;;37.80;7.22;;;;;;;;;;5053473;28;20539;-67
2021/05/06 09:31:38;;;;;;;25.02;6.25;;;;;;;;;;5050286;28;20065;-67
2021/05/06 09:34:06;;;;;;;38.95;7.65;;;;;;;;;;5044569;28;20370;-67
2021/05/06 09:36:34;;;;;;;33.40;6.60;;;;;;;;;;5041779;28;20033;-67
2021/05/06 09:39:01;;;;;;;31.77;6.50;;;;;;;;;;5052263;28;20033;-67
2021/05/06 09:41:32;;;;;;;38.33;5.75;;;;;;;;;;5050072;28;20512;-67
2021/05/06 09:44:10;;;;;;;33.53;5.35;;;;;;;;;;5054660;28;20071;-67
2021/05/06 09:46:43;;;;;;;27.48;5.53;;;;;;;;;;5051451;28;20028;-67
2021/05/06 09:49:11;;;;;;;37.97;6.65;;;;;;;;;;5051998;28;20485;-67
2021/05/06 09:51:46;;;;;;;34.63;5.60;;;;;;;;;;5037936;28;20021;-67
2021/05/06 09:54:14;;;;;;;28.90;5.72;;;;;;;;;;5035776;28;20024;-67
2021/05/06 09:56:43;;;;;;;37.03;5.97;;;;;;;;;;5033811;28;20033;-67
2021/05/06 09:59:11;;;;;;;31.88;5.82;;;;;;;;;;5044072;28;20460;-67
2021/05/06 10:01:39;;;;;;;36.30;6.65;;;;;;;;;;5038502;28;20068;-67
2021/05/06 10:04:17;;;;;;;38.88;7.38;;;;;;;;;;5059897;28;20507;-67
2021/05/06 10:07:04;;;;;;;52.00;8.48;;;;;;;;;;5036601;28;20021;-67
2021/05/06 10:09:31;;;;;;;37.28;7.22;;;;;;;;;;5036594;28;20108;-68
2021/05/06 10:12:03;;;;;;;32.47;6.43;;;;;;;;;;5036030;28;20025;-68
2021/05/06 10:14:30;;;;;;;37.35;7.45;;;;;;;;;;5036499;28;20112;-68
2021/05/06 10:16:57;;;;;;;43.67;6.97;;;;;;;;;;5035532;28;20528;-68
2021/05/06 10:19:24;;;;;;;37.88;8.20;;;;;;;;;;5044493;28;20029;-68
2021/05/06 10:21:52;;;;;;;33.40;7.13;;;;;;;;;;5034405;28;20037;-68
2021/05/06 10:24:19;;;;;;;42.17;9.85;;;;;;;;;;5050065;28;20033;-68
2021/05/06 10:26:46;;;;;;;38.08;7.75;;;;;;;;;;5036889;28;20018;-68
2021/05/06 10:29:17;;;;;;;41.15;7.97;;;;;;;;;;5033309;28;20033;-68
2021/05/06 10:31:45;;;;;;;35.33;7.63;;;;;;;;;;5053066;28;20059;-68
2021/05/06 10:34:12;;;;;;;31.80;7.10;;;;;;;;;;5033949;28;20041;-68
2021/05/06 10:36:40;;;;;;;41.22;7.15;;;;;;;;;;5033892;28;20029;-68
2021/05/06 10:39:12;;;;;;;38.40;7.90;;;;;;;;;;5049922;28;20044;-68
2021/05/06 10:41:39;;;;;;;45.00;7.35;;;;;;;;;;5064595;28;20433;-68
2021/05/06 10:44:07;;;;;;;46.03;8.15;;;;;;;;;;5054037;28;20078;-69
2021/05/06 10:49:29;;;;;;;34.42;5.93;;;;;;;;;;5035482;28;20030;-68
2021/05/06 10:52:04;;;;;;;42.92;7.10;;;;;;;;;;5051135;28;20496;-69
2021/05/06 10:54:33;;;;;;;46.50;8.75;;;;;;;;;;5050869;28;20064;-69
2021/05/06 10:57:22;;;;;;;46.85;6.60;;;;;;;;;;5052927;28;20065;-69
2021/05/06 10:59:50;;;;;;;46.85;8.10;;;;;;;;;;5053277;28;20464;-68
2021/05/06 11:02:40;;;;;;;39.78;7.35;;;;;;;;;;5042142;28;20088;-68
2021/05/06 11:05:17;;;;;;;40.80;7.25;;;;;;;;;;5045728;28;20498;-69
2021/05/06 11:08:04;;;;;;;38.65;6.80;;;;;;;;;;5034095;28;20056;-69
2021/05/06 11:10:47;;;;;;;45.10;6.53;;;;;;;;;;5045228;28;20481;-69
2021/05/06 11:13:14;;;;;;;38.55;6.43;;;;;;;;;;5050498;28;20029;-69
2021/05/06 11:15:42;;;;;;;36.20;6.60;;;;;;;;;;5033747;28;20421;-68
2021/05/06 11:18:10;;;;;;;45.88;7.88;;;;;;;;;;5038098;28;20037;-69
2021/05/06 11:20:37;;;;;;;35.03;6.75;;;;;;;;;;5040929;28;20152;-69
2021/05/06 11:23:04;;;;;;;39.60;7.05;;;;;;;;;;5033778;28;20021;-69
2021/05/06 11:25:32;;;;;;;36.33;6.70;;;;;;;;;;5039716;28;20380;-69
2021/05/06 11:28:06;;;;;;;41.35;6.65;;;;;;;;;;5053415;28;20446;-68
2021/05/06 11:30:34;;;;;;;41.22;6.65;;;;;;;;;;5052760;28;20033;-68
2021/05/06 11:33:30;;;;;;;42.13;8.00;;;;;;;;;;5052017;28;20036;-68
2021/05/06 11:35:58;;;;;;;37.42;6.32;;;;;;;;;;5041844;28;20033;-68
2021/05/06 11:38:41;;;;;;;32.15;4.32;;;;;;;;;;5052609;28;20095;-68
2021/05/06 11:41:09;;;;;;;37.72;6.38;;;;;;;;;;5052712;28;20052;-68
2021/05/06 11:43:37;;;;;;;29.67;6.57;;;;;;;;;;5033760;28;20039;-68
2021/05/06 11:46:08;;;;;;;36.35;6.95;;;;;;;;;;5033060;28;20029;-68
2021/05/06 11:48:39;;;;;;;28.17;4.88;;;;;;;;;;5033667;28;20021;-68
2021/05/06 11:51:06;;;;;;;39.65;5.57;;;;;;;;;;5068280;28;20032;-68
2021/05/06 11:53:37;;;;;;;33.30;4.90;;;;;;;;;;5037096;28;20441;-68
2021/05/06 11:56:22;;;;;;;35.80;5.65;;;;;;;;;;5031934;28;20088;-68
2021/05/06 11:58:52;;;;;;;36.00;6.05;;;;;;;;;;5033799;28;20034;-72
2021/05/06 12:01:23;;;;;;;36.85;7.32;;;;;;;;;;5040465;28;20535;-73
2021/05/06 12:03:51;;;;;;;34.50;6.32;;;;;;;;;;5038404;28;20028;-73
2021/05/06 12:06:27;;;;;;;39.38;7.03;;;;;;;;;;5044380;28;20112;-73
2021/05/06 12:08:54;;;;;;;43.72;7.93;;;;;;;;;;5047752;28;20113;-73
2021/05/06 12:11:22;;;;;;;42.90;7.90;;;;;;;;;;5032124;28;20063;-73
2021/05/06 12:13:50;;;;;;;37.45;7.68;;;;;;;;;;5032512;28;20025;-73
2021/05/06 12:16:17;;;;;;;33.33;6.80;;;;;;;;;;5033436;28;20112;-73
2021/05/06 12:18:54;;;;;;;36.25;7.13;;;;;;;;;;5042044;28;20031;-69
2021/05/06 12:21:27;;;;;;;35.35;6.35;;;;;;;;;;5040343;28;20385;-69
2021/05/06 12:23:54;;;;;;;43.05;6.13;;;;;;;;;;5043465;28;20016;-69
2021/05/06 12:26:21;;;;;;;44.03;7.20;;;;;;;;;;5043460;28;20017;-68
2021/05/06 12:28:48;;;;;;;49.50;8.18;;;;;;;;;;5041161;28;20056;-68
2021/05/06 12:31:15;;;;;;;41.85;7.00;;;;;;;;;;5046017;28;20037;-68
2021/05/06 12:33:43;;;;;;;46.83;7.80;;;;;;;;;;5047673;28;20049;-68
2021/05/06 12:36:13;;;;;;;55.03;9.20;;;;;;;;;;5038419;28;20021;-68
2021/05/06 12:38:42;;;;;;;46.67;7.70;;;;;;;;;;5041337;28;20542;-68
2021/05/06 12:41:10;;;;;;;50.90;7.07;;;;;;;;;;5047888;28;20021;-68
2021/05/06 12:43:45;;;;;;;44.05;6.63;;;;;;;;;;5043079;28;20079;-68
2021/05/06 12:46:13;;;;;;;41.95;7.03;;;;;;;;;;5047794;28;20040;-68
2021/05/06 12:48:53;;;;;;;51.75;7.63;;;;;;;;;;5036629;28;20025;-68
2021/05/06 12:51:20;;;;;;;44.10;7.40;;;;;;;;;;5047672;28;20124;-68
2021/05/06 12:54:11;;;;;;;37.45;6.97;;;;;;;;;;5062747;28;20036;-68
2021/05/06 12:56:42;;;;;;;49.67;8.40;;;;;;;;;;5030677;28;20048;-67
2021/05/06 12:59:26;;;;;;;47.10;7.50;;;;;;;;;;5037584;28;20018;-67
2021/05/06 13:01:54;;;;;;;42.78;6.72;;;;;;;;;;5043432;28;20029;-68
2021/05/06 13:04:21;;;;;;;47.00;7.40;;;;;;;;;;5034297;28;20521;-67
2021/05/06 13:06:48;;;;;;;40.80;6.15;;;;;;;;;;5035996;28;20029;-66
2021/05/06 13:09:17;;;;;;;28.17;3.97;;;;;;;;;;5063076;28;20378;-67
2021/05/06 13:11:45;;;;;;;34.72;4.25;;;;;;;;;;5042357;28;20021;-67
2021/05/06 13:14:12;;;;;;;26.33;5.75;;;;;;;;;;5052049;28;20025;-67
2021/05/06 13:16:43;;;;;;;20.17;2.97;;;;;;;;;;5045995;28;20096;-67
2021/05/06 13:19:12;;;;;;;15.75;2.75;;;;;;;;;;5035134;28;20091;-67
2021/05/06 13:21:46;;;;;;;14.55;2.10;;;;;;;;;;5044153;28;20059;-67
2021/05/06 13:24:13;;;;;;;9.18;2.05;;;;;;;;;;5044159;28;20021;-67
2021/05/06 13:26:42;;;;;;;19.48;3.28;;;;;;;;;;5042470;28;20025;-67
2021/05/06 13:29:13;;;;;;;17.80;2.97;;;;;;;;;;5041522;28;20497;-67
2021/05/06 13:31:41;;;;;;;25.48;3.63;;;;;;;;;;5042652;28;20446;-67
2021/05/06 13:34:13;;;;;;;22.90;3.45;;;;;;;;;;5033790;28;20049;-67
2021/05/06 13:36:40;;;;;;;23.85;4.10;;;;;;;;;;5034584;28;20482;-67
2021/05/06 13:39:09;;;;;;;26.38;3.92;;;;;;;;;;5051823;28;20524;-67
2021/05/06 13:41:37;;;;;;;21.10;4.10;;;;;;;;;;5036174;28;20068;-67
2021/05/06 13:44:05;;;;;;;26.30;5.10;;;;;;;;;;5038812;28;20044;-67
2021/05/06 13:46:34;;;;;;;27.15;3.85;;;;;;;;;;5044818;28;20017;-67
2021/05/06 13:49:01;;;;;;;30.65;4.13;;;;;;;;;;5046220;28;20058;-67
2021/05/06 13:51:29;;;;;;;28.10;4.38;;;;;;;;;;5046247;28;20037;-67
2021/05/06 13:53:56;;;;;;;22.05;3.85;;;;;;;;;;5034291;28;20109;-67
2021/05/06 13:56:24;;;;;;;26.73;5.13;;;;;;;;;;5038116;28;20025;-67
2021/05/06 13:58:51;;;;;;;30.80;4.32;;;;;;;;;;5044526;28;20070;-67
2021/05/06 14:01:19;;;;;;;37.90;5.38;;;;;;;;;;5045362;28;20035;-67
2021/05/06 14:03:46;;;;;;;40.17;5.70;;;;;;;;;;5043717;28;20481;-67
2021/05/06 14:06:14;;;;;;;40.45;6.63;;;;;;;;;;5050401;28;20040;-67
2021/05/06 14:08:41;;;;;;;34.88;6.70;;;;;;;;;;5042926;28;20039;-67
2021/05/06 14:11:08;;;;;;;33.13;5.88;;;;;;;;;;5040317;28;20075;-67
2021/05/06 14:13:35;;;;;;;32.92;5.80;;;;;;;;;;5068518;28;20032;-67
2021/05/06 14:16:03;;;;;;;35.80;5.75;;;;;;;;;;5045837;28;20075;-67
2021/05/06 14:18:30;;;;;;;35.63;6.40;;;;;;;;;;5049210;28;20025;-67
2021/05/06 14:21:02;;;;;;;35.95;6.13;;;;;;;;;;5046245;28;20013;-67
2021/05/06 14:23:31;;;;;;;40.22;6.47;;;;;;;;;;5042222;28;20017;-67
2021/05/06 14:25:58;;;;;;;40.03;6.63;;;;;;;;;;5047396;28;20028;-67
2021/05/06 14:28:25;;;;;;;41.45;7.43;;;;;;;;;;5038814;28;20017;-67
2021/05/06 14:30:52;;;;;;;60.30;8.35;;;;;;;;;;5037792;28;20030;-67
2021/05/06 14:33:19;;;;;;;56.88;9.40;;;;;;;;;;5046982;28;20112;-68
2021/05/06 14:35:46;;;;;;;57.70;9.88;;;;;;;;;;5038515;28;20494;-68
2021/05/06 14:38:14;;;;;;;65.88;10.25;;;;;;;;;;5059530;28;20041;-68
2021/05/06 14:40:42;;;;;;;61.60;11.35;;;;;;;;;;5043802;28;20509;-67
2021/05/06 14:43:09;;;;;;;53.05;9.75;;;;;;;;;;5034933;28;20037;-67
2021/05/06 14:45:37;;;;;;;55.47;10.50;;;;;;;;;;5034463;28;20029;-68
2021/05/06 14:48:04;;;;;;;55.42;10.18;;;;;;;;;;5049901;28;20017;-68
2021/05/06 14:50:32;;;;;;;32.58;6.78;;;;;;;;;;5039261;28;20411;-68
2021/05/06 14:53:00;;;;;;;36.13;6.38;;;;;;;;;;5048972;28;20049;-67
2021/05/06 14:55:27;;;;;;;35.70;5.70;;;;;;;;;;5042777;28;20017;-67
2021/05/06 14:57:54;;;;;;;34.28;6.38;;;;;;;;;;5042167;28;20343;-67
2021/05/06 15:00:22;;;;;;;35.92;5.63;;;;;;;;;;5039698;28;20029;-68
2021/05/06 15:02:50;;;;;;;28.90;5.05;;;;;;;;;;5050507;28;20029;-68
2021/05/06 15:05:19;;;;;;;36.83;5.50;;;;;;;;;;5038114;28;20029;-68
2021/05/06 15:07:47;;;;;;;38.67;5.18;;;;;;;;;;5040355;28;20389;-68
2021/05/06 15:10:14;;;;;;;36.20;5.75;;;;;;;;;;5037108;28;20104;-67
2021/05/06 15:12:46;;;;;;;40.35;5.47;;;;;;;;;;5036887;28;20025;-68
2021/05/06 15:15:14;;;;;;;37.35;5.28;;;;;;;;;;5038606;28;20086;-68
2021/05/06 15:17:41;;;;;;;35.95;5.18;;;;;;;;;;5039963;28;20017;-67
2021/05/06 15:20:09;;;;;;;28.40;4.78;;;;;;;;;;5036648;28;20086;-67
2021/05/06 15:22:37;;;;;;;30.00;5.18;;;;;;;;;;5045789;28;20033;-67
2021/05/06 15:25:11;;;;;;;28.08;5.75;;;;;;;;;;5037082;28;20035;-68
2021/05/06 15:27:41;;;;;;;25.25;4.75;;;;;;;;;;5044343;28;20021;-67
2021/05/06 15:30:09;;;;;;;33.00;5.53;;;;;;;;;;5063884;28;20030;-67
2021/05/06 15:32:36;;;;;;;39.65;6.55;;;;;;;;;;5039041;28;20108;-67
2021/05/06 15:35:03;;;;;;;29.77;6.93;;;;;;;;;;5043515;28;20050;-67
2021/05/06 15:37:30;;;;;;;32.95;6.15;;;;;;;;;;5039422;28;20504;-68
2021/05/06 15:39:57;;;;;;;34.75;5.45;;;;;;;;;;5040068;28;20025;-67
2021/05/06 15:42:25;;;;;;;42.35;6.95;;;;;;;;;;5041882;28;20548;-68
2021/05/06 15:44:52;;;;;;;40.33;7.07;;;;;;;;;;5062221;28;20108;-68
2021/05/06 15:47:19;;;;;;;33.53;6.38;;;;;;;;;;5048113;28;20033;-68
2021/05/06 15:49:46;;;;;;;36.47;7.25;;;;;;;;;;5036718;28;20032;-68
2021/05/06 15:52:13;;;;;;;45.30;8.13;;;;;;;;;;5042137;28;20025;-68
2021/05/06 15:54:41;;;;;;;33.97;5.78;;;;;;;;;;5039351;28;20059;-67
2021/05/06 15:57:09;;;;;;;29.10;5.32;;;;;;;;;;5037382;28;20382;-68
2021/05/06 15:59:37;;;;;;;32.15;5.32;;;;;;;;;;5042773;28;20102;-67
2021/05/06 16:02:07;;;;;;;39.17;5.75;;;;;;;;;;5064554;28;20056;-68
2021/05/06 16:04:39;;;;;;;27.85;4.22;;;;;;;;;;5031457;28;20033;-68
2021/05/06 16:07:06;;;;;;;26.60;4.38;;;;;;;;;;5037877;28;20107;-68
2021/05/06 16:09:34;;;;;;;31.35;5.72;;;;;;;;;;5038571;28;20029;-68
2021/05/06 16:12:01;;;;;;;34.70;5.35;;;;;;;;;;5041519;28;20041;-68
2021/05/06 16:14:28;;;;;;;39.92;7.15;;;;;;;;;;5055824;28;20029;-68
2021/05/06 16:16:55;;;;;;;38.10;5.90;;;;;;;;;;5040105;28;20033;-68
2021/05/06 16:19:24;;;;;;;41.30;5.10;;;;;;;;;;5045317;28;20112;-68
2021/05/06 16:21:51;;;;;;;42.88;6.15;;;;;;;;;;5034825;28;20029;-68
2021/05/06 16:24:19;;;;;;;40.47;6.43;;;;;;;;;;5043228;28;20028;-68
2021/05/06 16:26:47;;;;;;;45.75;6.35;;;;;;;;;;5038567;28;20036;-68
2021/05/06 16:29:15;;;;;;;41.53;7.70;;;;;;;;;;5043681;28;20076;-68
2021/05/06 16:31:42;;;;;;;45.15;6.85;;;;;;;;;;5041624;28;20013;-68
2021/05/06 16:34:12;;;;;;;37.33;6.75;;;;;;;;;;5046122;28;20097;-68
2021/05/06 16:36:47;;;;;;;41.97;5.35;;;;;;;;;;5034350;28;20061;-68
2021/05/06 16:39:27;;;;;;;40.22;6.78;;;;;;;;;;5058294;28;20514;-67
2021/05/06 16:42:12;;;;;;;44.20;7.63;;;;;;;;;;5038710;28;20025;-68
2021/05/06 16:44:39;;;;;;;43.80;6.10;;;;;;;;;;5042325;28;20033;-68
2021/05/06 16:47:06;;;;;;;40.40;7.35;;;;;;;;;;5039695;28;20041;-68
2021/05/06 16:49:34;;;;;;;44.53;7.28;;;;;;;;;;5037541;28;20029;-68
2021/05/06 16:52:01;;;;;;;41.88;6.53;;;;;;;;;;5038842;28;20108;-68
2021/05/06 16:54:29;;;;;;;38.33;7.22;;;;;;;;;;5047361;28;20086;-68
2021/05/06 16:56:57;;;;;;;40.83;6.53;;;;;;;;;;5038882;28;20021;-68
2021/05/06 16:59:24;;;;;;;30.92;6.38;;;;;;;;;;5038570;28;20018;-69
2021/05/06 17:01:51;;;;;;;39.15;6.78;;;;;;;;;;5042803;28;20030;-68
2021/05/06 17:04:19;;;;;;;38.30;6.53;;;;;;;;;;5043354;28;20037;-68
2021/05/06 17:06:46;;;;;;;37.78;6.90;;;;;;;;;;5039558;28;20112;-68
2021/05/06 17:09:14;;;;;;;30.98;5.55;;;;;;;;;;5060587;28;20041;-68
2021/05/06 17:11:42;;;;;;;38.03;5.30;;;;;;;;;;5043918;28;20029;-68
2021/05/06 17:14:09;;;;;;;38.58;5.97;;;;;;;;;;5043632;28;20020;-68
2021/05/06 17:16:37;;;;;;;46.80;7.35;;;;;;;;;;5043527;28;20029;-68
2021/05/06 17:19:05;;;;;;;43.70;7.70;;;;;;;;;;5049259;28;20025;-68
2021/05/06 17:21:32;;;;;;;31.95;5.82;;;;;;;;;;5040626;28;20024;-69
2021/05/06 17:24:00;;;;;;;36.40;5.90;;;;;;;;;;5039526;28;20060;-68
2021/05/06 17:26:28;;;;;;;28.95;5.38;;;;;;;;;;5036367;28;21802;-68
2021/05/06 17:28:55;;;;;;;29.35;4.43;;;;;;;;;;5042259;28;20021;-67
2021/05/06 17:31:22;;;;;;;26.00;4.57;;;;;;;;;;5065838;28;20033;-67
2021/05/06 17:33:49;;;;;;;34.13;5.32;;;;;;;;;;5040293;28;20413;-67
2021/05/06 17:36:16;;;;;;;31.90;4.63;;;;;;;;;;5039760;28;20037;-67
2021/05/06 17:38:43;;;;;;;28.70;5.50;;;;;;;;;;5045430;28;20025;-68
2021/05/06 17:41:10;;;;;;;33.78;5.80;;;;;;;;;;5043144;28;20397;-67
2021/05/06 17:43:37;;;;;;;33.00;4.85;;;;;;;;;;5039558;28;20116;-68
2021/05/06 17:46:05;;;;;;;28.08;5.70;;;;;;;;;;5046229;28;20025;-67
2021/05/06 17:48:32;;;;;;;27.95;5.47;;;;;;;;;;5041301;28;20033;-67
2021/05/06 17:50:59;;;;;;;31.98;5.05;;;;;;;;;;5043008;28;20379;-67
2021/05/06 17:53:26;;;;;;;34.65;5.18;;;;;;;;;;5049917;28;20029;-67
2021/05/06 17:55:53;;;;;;;42.95;5.18;;;;;;;;;;5041382;28;20029;-68
2021/05/06 17:58:20;;;;;;;40.75;4.68;;;;;;;;;;5042053;28;20017;-68
2021/05/06 18:00:47;;;;;;;26.80;4.97;;;;;;;;;;5050237;28;20032;-67